Time;durP1;ratioP1;P1;durP2;ratioP2;P2;SDS_P1;SDS_P2;PMS_P1;PMS_P2;Temp;Humidity;BMP_temperature;BMP_pressure;BME280_temperature;BME280_humidity;BME280_pressure;Samples;Min_cycle;Max_cycle;Signal;HPM_P1;HPM_P2
2020/12/04 00:02:04;;;;;;;29.17;15.75;;;;;;;5.05;66.03;99093.75;4424831;32;34907;-54
2020/12/04 00:04:31;;;;;;;29.67;16.27;;;;;;;4.85;66.49;99102.25;4438874;32;34047;-56
2020/12/04 00:06:59;;;;;;;26.52;15.18;;;;;;;4.72;67.14;99108.75;4424766;32;33524;-53
2020/12/04 00:09:26;;;;;;;29.67;16.20;;;;;;;4.63;67.85;99098.56;4438977;32;35526;-55
2020/12/04 00:11:54;;;;;;;29.02;15.85;;;;;;;4.57;68.25;99104.00;4438626;32;33749;-56
2020/12/04 00:14:21;;;;;;;27.87;16.08;;;;;;;4.88;67.04;99098.66;4424749;32;32995;-54
2020/12/04 00:16:48;;;;;;;29.85;17.17;;;;;;;4.81;66.71;99082.31;4438489;32;33846;-53
2020/12/04 00:19:16;;;;;;;30.65;15.38;;;;;;;5.00;66.41;99066.03;4438045;32;34800;-56
2020/12/04 00:21:43;;;;;;;28.05;15.13;;;;;;;4.99;66.10;99061.72;4438633;32;34197;-53
2020/12/04 00:24:10;;;;;;;27.10;17.00;;;;;;;4.62;66.95;99078.56;4437622;32;34256;-51
2020/12/04 00:26:38;;;;;;;33.25;17.12;;;;;;;4.49;68.04;99092.91;4424959;32;33713;-53
2020/12/04 00:29:05;;;;;;;29.12;16.83;;;;;;;4.52;68.18;99085.00;4438592;32;34778;-51
2020/12/04 00:31:32;;;;;;;25.73;15.20;;;;;;;4.68;66.97;99080.13;4424707;32;35222;-50
2020/12/04 00:34:00;;;;;;;25.48;14.20;;;;;;;4.80;66.62;99078.00;4425079;32;33573;-50
2020/12/04 00:36:28;;;;;;;29.50;15.63;;;;;;;4.91;66.25;99082.03;4424738;32;33631;-49
2020/12/04 00:38:56;;;;;;;32.63;16.12;;;;;;;4.48;67.52;99065.06;4424816;32;35740;-52
2020/12/04 00:41:24;;;;;;;30.20;17.05;;;;;;;4.32;68.52;99077.72;4412288;32;33259;-52
2020/12/04 00:43:52;;;;;;;32.15;16.20;;;;;;;4.07;69.37;99083.66;4438695;32;33745;-49
2020/12/04 00:46:19;;;;;;;28.70;15.82;;;;;;;4.48;67.98;99072.91;4424644;32;34446;-51
2020/12/04 00:48:47;;;;;;;30.75;15.43;;;;;;;4.73;66.78;99073.84;4424805;32;34588;-52
2020/12/04 00:51:14;;;;;;;31.37;17.20;;;;;;;4.81;66.12;99074.47;4438668;32;34034;-51
2020/12/04 00:53:42;;;;;;;31.60;16.00;;;;;;;4.72;66.59;99074.75;4438642;32;32998;-52
2020/12/04 00:56:09;;;;;;;29.60;14.95;;;;;;;4.68;66.75;99075.75;4424861;32;33986;-51
2020/12/04 00:58:38;;;;;;;31.23;15.90;;;;;;;4.73;66.29;99065.16;4438641;32;35632;-49
2020/12/04 01:01:05;;;;;;;28.02;15.88;;;;;;;4.43;67.08;99066.97;4438536;32;34016;-50
2020/12/04 01:03:33;;;;;;;30.55;15.00;;;;;;;4.70;66.28;99067.84;4438719;32;33243;-50
2020/12/04 01:06:00;;;;;;;34.08;16.55;;;;;;;4.39;67.27;99058.34;4424629;32;33858;-50
2020/12/04 01:08:27;;;;;;;31.37;15.73;;;;;;;4.55;66.68;99054.34;4424577;32;35681;-50
2020/12/04 01:10:56;;;;;;;27.55;15.70;;;;;;;4.61;66.35;99061.16;4424985;32;34103;-52
2020/12/04 01:13:23;;;;;;;28.25;16.77;;;;;;;4.42;66.85;99060.03;4425038;32;33306;-52
2020/12/04 01:15:50;;;;;;;26.75;15.25;;;;;;;4.52;66.48;99059.69;4437216;32;33643;-50
2020/12/04 01:18:18;;;;;;;31.05;15.88;;;;;;;4.41;67.04;99055.69;4438414;32;35573;-52
2020/12/04 01:20:45;;;;;;;29.33;15.52;;;;;;;4.08;68.11;99043.59;4438268;32;35058;-50
2020/12/04 01:23:12;;;;;;;31.40;15.88;;;;;;;4.69;65.92;99053.06;4440194;32;33163;-53
2020/12/04 01:25:40;;;;;;;33.83;15.60;;;;;;;4.72;65.83;99053.84;4439897;32;33373;-50
2020/12/04 01:28:08;;;;;;;28.45;15.43;;;;;;;4.28;67.15;99056.06;4440310;32;35162;-52
2020/12/04 01:30:35;;;;;;;32.58;16.25;;;;;;;4.50;66.64;99060.62;4439457;32;34418;-53
2020/12/04 01:33:02;;;;;;;31.27;16.23;;;;;;;4.44;66.69;99048.59;4442255;32;32891;-54
2020/12/04 01:35:29;;;;;;;27.62;16.00;;;;;;;4.81;65.50;99031.75;4438159;32;33546;-51
2020/12/04 01:37:56;;;;;;;32.15;16.12;;;;;;;4.64;65.99;99037.53;4438001;32;35404;-51
2020/12/04 01:40:23;;;;;;;33.65;16.55;;;;;;;4.57;66.26;99034.25;4424782;32;34996;-52
2020/12/04 01:42:51;;;;;;;32.38;17.70;;;;;;;4.51;66.47;99031.84;4424096;32;33964;-50
2020/12/04 01:45:18;;;;;;;31.02;14.77;;;;;;;4.21;67.23;99025.78;4438179;32;34171;-54
2020/12/04 01:47:45;;;;;;;30.58;16.17;;;;;;;4.43;66.66;99017.31;4438169;32;34738;-52
2020/12/04 01:50:12;;;;;;;34.90;15.88;;;;;;;4.54;66.23;99015.19;4424475;32;33825;-52
2020/12/04 01:52:40;;;;;;;32.15;16.62;;;;;;;4.46;66.33;99006.72;4438180;32;33221;-50
2020/12/04 01:55:08;;;;;;;29.65;15.77;;;;;;;4.22;66.95;99017.03;4424522;32;33709;-55
2020/12/04 01:57:38;;;;;;;27.50;15.35;;;;;;;4.35;67.16;99020.13;4437588;32;35062;-51
2020/12/04 02:00:07;;;;;;;26.02;15.13;;;;;;;4.51;66.06;98990.03;4424216;32;33921;-54
2020/12/04 02:02:42;;;;;;;30.10;15.93;;;;;;;4.91;64.88;98987.84;4425607;32;33217;-54
2020/12/04 02:05:10;;;;;;;32.13;15.90;;;;;;;4.53;66.21;98982.13;4437939;32;34474;-51
2020/12/04 02:07:59;;;;;;;31.37;14.82;;;;;;;4.54;66.51;98981.22;4432853;32;35712;-54
2020/12/04 02:10:32;;;;;;;28.08;15.32;;;;;;;4.35;67.30;98981.78;4424294;32;34023;-52
2020/12/04 02:13:00;;;;;;;28.20;15.20;;;;;;;4.64;65.95;98969.53;4424088;32;33294;-56
2020/12/04 02:15:28;;;;;;;30.70;16.02;;;;;;;4.21;67.62;98985.75;4430169;32;32020;-53
2020/12/04 02:17:56;;;;;;;31.80;16.05;;;;;;;4.30;67.44;98975.84;4439188;32;34786;-55
2020/12/04 02:20:23;;;;;;;30.60;17.15;;;;;;;3.87;68.88;98970.25;4439431;32;34691;-53
2020/12/04 02:22:51;;;;;;;25.73;14.68;;;;;;;4.21;67.95;98972.69;4438948;32;33273;-53
2020/12/04 02:25:18;;;;;;;29.73;15.13;;;;;;;4.17;67.92;98964.06;4426420;32;34804;-54
2020/12/04 02:27:48;;;;;;;32.17;15.25;;;;;;;3.75;69.68;98967.09;4453941;32;35528;-57
2020/12/04 02:30:30;;;;;;;27.37;14.52;;;;;;;4.01;68.76;98974.13;4444223;32;34378;-56
2020/12/04 02:32:58;;;;;;;26.27;13.30;;;;;;;3.80;69.87;98983.50;4425667;32;34301;-54
2020/12/04 02:35:25;;;;;;;27.20;14.55;;;;;;;4.10;68.71;98973.88;4426132;32;33600;-49
2020/12/04 02:37:53;;;;;;;27.23;14.80;;;;;;;3.71;70.30;98978.53;4425612;32;34550;-50
2020/12/04 02:40:23;;;;;;;26.15;14.75;;;;;;;3.94;69.19;98971.75;4425653;32;33495;-51
2020/12/04 02:42:54;;;;;;;28.80;15.32;;;;;;;4.07;68.10;98973.94;4439529;32;33262;-49
2020/12/04 02:45:21;;;;;;;28.27;15.27;;;;;;;4.16;68.44;98983.25;4425949;32;33564;-53
2020/12/04 02:47:48;;;;;;;30.25;15.38;;;;;;;4.07;68.76;98983.53;4438313;32;35819;-52
2020/12/04 02:50:16;;;;;;;29.83;14.98;;;;;;;4.30;67.77;98977.63;4439283;32;33920;-49
2020/12/04 02:52:43;;;;;;;26.90;15.75;;;;;;;4.05;68.39;98987.97;4425613;32;33331;-51
2020/12/04 02:55:10;;;;;;;29.73;15.20;;;;;;;4.17;68.11;98987.59;4439893;32;33763;-51
2020/12/04 02:57:38;;;;;;;27.55;15.30;;;;;;;4.26;67.44;98987.31;4425332;32;35492;-50
2020/12/04 03:00:05;;;;;;;27.42;15.00;;;;;;;4.02;68.40;98975.84;4439331;32;34894;-52
2020/12/04 03:02:32;;;;;;;25.58;14.55;;;;;;;4.01;68.51;98958.47;4439381;32;33950;-50
2020/12/04 03:05:00;;;;;;;27.67;15.70;;;;;;;4.28;67.35;98942.84;4425753;32;33563;-55
2020/12/04 03:07:27;;;;;;;31.52;14.87;;;;;;;4.08;68.26;98946.94;4424972;32;34737;-54
2020/12/04 03:09:54;;;;;;;29.10;14.75;;;;;;;4.09;68.02;98955.63;4425190;32;34130;-49
2020/12/04 03:12:21;;;;;;;29.70;15.63;;;;;;;3.85;68.87;98936.34;4425573;32;33203;-51
2020/12/04 03:14:48;;;;;;;26.02;14.95;;;;;;;3.95;68.67;98957.81;4428653;32;34032;-50
2020/12/04 03:17:15;;;;;;;27.77;15.95;;;;;;;3.78;68.92;98959.16;4455044;32;35149;-52
2020/12/04 03:19:43;;;;;;;30.10;15.52;;;;;;;3.63;69.58;98977.88;4440111;32;34281;-50
2020/12/04 03:22:10;;;;;;;26.58;14.95;;;;;;;4.17;67.86;98969.28;4454821;32;33158;-52
2020/12/04 03:24:37;;;;;;;25.12;15.00;;;;;;;4.04;68.34;98968.84;4428031;32;33742;-51
2020/12/04 03:27:05;;;;;;;30.23;14.70;;;;;;;4.34;67.32;98969.63;4440966;32;34528;-52
2020/12/04 03:29:32;;;;;;;26.65;15.20;;;;;;;4.43;66.87;98950.19;4440261;32;34348;-49
2020/12/04 03:31:59;;;;;;;29.08;15.13;;;;;;;4.11;67.97;98953.81;4427481;32;32869;-51
2020/12/04 03:34:26;;;;;;;28.42;15.45;;;;;;;4.24;67.60;98943.84;4425434;32;33601;-51
2020/12/04 03:36:54;;;;;;;25.27;13.82;;;;;;;4.33;67.61;98952.25;4425068;32;34199;-53
2020/12/04 03:39:21;;;;;;;26.30;13.70;;;;;;;4.51;66.86;98952.53;4424512;32;34321;-47
2020/12/04 03:41:49;;;;;;;26.00;14.05;;;;;;;4.28;67.50;98951.53;4425303;32;33145;-49
2020/12/04 03:44:16;;;;;;;28.80;13.45;;;;;;;4.12;68.28;98950.28;4413044;32;33847;-53
2020/12/04 03:46:44;;;;;;;26.85;15.38;;;;;;;3.85;69.51;98952.00;4424852;32;34690;-50
2020/12/04 03:49:13;;;;;;;24.60;13.98;;;;;;;4.11;68.54;98948.59;4437834;32;34064;-52
2020/12/04 03:51:43;;;;;;;25.35;14.23;;;;;;;4.28;67.71;98935.88;4438886;32;33255;-51
2020/12/04 03:54:11;;;;;;;26.87;14.13;;;;;;;4.42;67.00;98931.97;4438306;32;34462;-51
2020/12/04 03:56:39;;;;;;;26.30;14.02;;;;;;;4.32;67.57;98937.47;4438868;32;34720;-51
2020/12/04 03:59:07;;;;;;;25.17;14.13;;;;;;;4.24;67.75;98944.69;4438029;32;34217;-52
2020/12/04 04:01:35;;;;;;;23.62;13.52;;;;;;;4.21;68.24;98931.72;4438072;32;33291;-51
2020/12/04 04:04:02;;;;;;;30.48;15.05;;;;;;;4.48;67.06;98942.19;4425484;32;33860;-55
2020/12/04 04:06:29;;;;;;;27.15;14.63;;;;;;;4.18;68.58;98950.13;4424987;32;34713;-54
2020/12/04 04:08:56;;;;;;;23.67;13.73;;;;;;;3.99;69.13;98952.44;4439150;32;34466;-52
2020/12/04 04:11:24;;;;;;;27.80;13.82;;;;;;;4.02;69.11;98960.16;4438541;32;33217;-54
2020/12/04 04:13:51;;;;;;;26.12;14.35;;;;;;;4.50;67.47;98958.69;4439191;32;33699;-51
2020/12/04 04:16:18;;;;;;;28.33;15.30;;;;;;;4.10;68.41;98958.19;4411531;32;34420;-55
2020/12/04 04:18:46;;;;;;;29.58;14.45;;;;;;;4.00;69.22;98966.38;4425067;32;34173;-55
2020/12/04 04:21:13;;;;;;;26.92;14.05;;;;;;;4.23;68.69;98958.66;4438644;32;33159;-53
2020/12/04 04:23:40;;;;;;;26.12;14.73;;;;;;;4.06;68.55;98956.56;4439024;32;34747;-55
2020/12/04 04:26:08;;;;;;;25.10;13.50;;;;;;;3.64;70.79;98948.25;4425362;32;35829;-53
2020/12/04 04:28:36;;;;;;;30.58;15.95;;;;;;;4.03;69.38;98945.34;4435531;32;34868;-56
2020/12/04 04:31:03;;;;;;;28.52;14.73;;;;;;;4.14;68.95;98942.44;4453771;32;34217;-55
2020/12/04 04:33:30;;;;;;;22.65;13.23;;;;;;;4.49;67.66;98925.59;4439660;32;34584;-56
2020/12/04 04:35:58;;;;;;;28.60;14.63;;;;;;;4.48;67.40;98926.50;4425223;32;35823;-56
2020/12/04 04:38:28;;;;;;;25.88;15.52;;;;;;;4.62;67.18;98938.22;4424948;32;34488;-55
2020/12/04 04:40:58;;;;;;;24.55;14.50;;;;;;;4.35;68.47;98957.41;4424984;32;34250;-51
2020/12/04 04:43:25;;;;;;;30.95;14.43;;;;;;;4.71;67.01;98950.13;4437403;32;33852;-49
2020/12/04 04:45:53;;;;;;;26.62;14.30;;;;;;;4.67;66.91;98960.75;4424736;32;34939;-51
2020/12/04 04:48:26;;;;;;;28.15;15.10;;;;;;;4.50;67.69;98962.13;4425318;32;34411;-51
2020/12/04 04:50:53;;;;;;;24.83;14.55;;;;;;;4.58;67.31;98964.53;4437239;32;33177;-52
2020/12/04 04:53:22;;;;;;;28.35;14.73;;;;;;;4.85;66.11;98955.75;4424880;32;33518;-52
2020/12/04 04:55:51;;;;;;;31.55;14.73;;;;;;;4.83;65.92;98939.25;4424702;32;34661;-50
2020/12/04 04:58:18;;;;;;;28.05;15.25;;;;;;;4.73;66.50;98958.78;4424730;32;35081;-50
2020/12/04 05:00:46;;;;;;;26.52;13.38;;;;;;;4.94;65.62;98951.09;4424703;32;33115;-50
2020/12/04 05:03:13;;;;;;;24.10;13.93;;;;;;;4.68;66.74;98942.37;4412144;32;33899;-52
2020/12/04 05:05:47;;;;;;;29.08;15.60;;;;;;;3.76;69.86;98952.28;4438448;32;35684;-50
2020/12/04 05:08:17;;;;;;;29.40;15.32;;;;;;;4.19;68.93;98959.66;4424808;32;34100;-52
2020/12/04 05:10:45;;;;;;;31.25;16.02;;;;;;;4.47;67.94;98969.25;4424644;32;33286;-50
2020/12/04 05:13:17;;;;;;;26.67;14.65;;;;;;;4.44;67.39;98962.34;4424904;32;34556;-49
2020/12/04 05:15:45;;;;;;;24.73;14.82;;;;;;;4.67;66.40;98964.22;4424246;32;35718;-50
2020/12/04 05:18:18;;;;;;;25.73;14.35;;;;;;;4.80;66.09;98959.44;4430070;32;34036;-53
2020/12/04 05:21:05;;;;;;;29.17;15.57;;;;;;;4.71;66.41;98955.38;4442788;32;33339;-50
2020/12/04 05:23:33;;;;;;;26.42;15.32;;;;;;;4.62;66.76;98950.44;4429649;32;33269;-53
2020/12/04 05:26:02;;;;;;;26.50;14.32;;;;;;;4.26;68.23;98958.56;4451025;32;35194;-49
2020/12/04 05:28:30;;;;;;;28.30;14.35;;;;;;;4.34;67.81;98974.84;4421038;32;34621;-53
2020/12/04 05:31:05;;;;;;;;;;;;;;;4.02;69.25;98986.28;4424432;32;33206;-49
2020/12/04 05:33:33;;;;;;;30.83;14.38;;;;;;;4.36;67.95;98986.09;4438502;32;33572;-53
2020/12/04 05:36:01;;;;;;;27.85;14.63;;;;;;;4.57;67.30;98984.59;4441507;32;34466;-54
2020/12/04 05:38:28;;;;;;;28.90;15.52;;;;;;;4.71;66.40;98976.28;4437503;32;34876;-49
2020/12/04 05:41:06;;;;;;;26.67;15.65;;;;;;;4.77;66.31;98980.47;4445771;32;34347;-52
2020/12/04 05:43:37;;;;;;;30.27;15.30;;;;;;;5.21;64.58;98984.16;4439557;32;32426;-53
2020/12/04 05:46:20;;;;;;;27.67;14.52;;;;;;;4.32;67.49;98979.28;4430237;32;35898;-50
2020/12/04 05:48:59;;;;;;;28.02;15.55;;;;;;;4.70;66.66;98984.16;4442305;32;33931;-48
2020/12/04 05:51:28;;;;;;;26.05;13.93;;;;;;;4.65;66.93;98988.69;4430718;32;33930;-51
2020/12/04 05:53:56;;;;;;;25.98;15.32;;;;;;;4.71;66.36;98989.38;4433677;32;33527;-53
2020/12/04 05:56:24;;;;;;;28.65;16.55;;;;;;;4.86;66.19;98986.25;4437907;32;35286;-51
2020/12/04 05:58:56;;;;;;;30.15;16.02;;;;;;;4.65;66.40;98979.09;4443105;32;35081;-51
2020/12/04 06:01:24;;;;;;;31.08;16.40;;;;;;;4.56;67.86;98982.03;4422608;32;33136;-53
2020/12/04 06:03:53;;;;;;;29.35;15.98;;;;;;;4.76;66.89;98976.12;4440147;32;33760;-53
2020/12/04 06:06:28;;;;;;;28.62;15.55;;;;;;;4.75;67.04;98977.06;4435793;32;35505;-53
2020/12/04 06:09:14;;;;;;;28.20;14.82;;;;;;;4.52;67.68;98973.44;4439602;32;35017;-53
2020/12/04 06:11:43;;;;;;;28.48;15.35;;;;;;;4.30;68.14;98981.09;4426488;32;33527;-53
2020/12/04 06:14:21;;;;;;;28.77;15.85;;;;;;;4.57;67.59;98987.19;4445923;32;34194;-52
2020/12/04 06:17:01;;;;;;;24.40;13.98;;;;;;;5.02;65.98;98976.09;4442007;32;34884;-51
2020/12/04 06:19:29;;;;;;;25.95;14.95;;;;;;;4.95;65.79;98986.84;4444435;32;34400;-49
2020/12/04 06:22:03;;;;;;;32.20;16.77;;;;;;;4.73;66.88;98986.69;4443232;32;33644;-52
2020/12/04 06:24:32;;;;;;;30.05;16.00;;;;;;;4.58;67.86;98990.66;4441336;32;33315;-54
2020/12/04 06:26:59;;;;;;;27.08;14.82;;;;;;;4.52;68.34;98991.72;4439556;32;34486;-51
2020/12/04 06:29:26;;;;;;;25.88;14.87;;;;;;;4.81;66.81;98998.62;4434405;32;35018;-55
2020/12/04 06:31:54;;;;;;;26.37;14.87;;;;;;;5.06;66.00;99008.25;4437672;32;33248;-54
2020/12/04 06:34:21;;;;;;;29.75;16.27;;;;;;;5.09;65.80;99002.94;4441322;32;33631;-55
2020/12/04 06:36:49;;;;;;;30.55;15.98;;;;;;;4.49;68.15;99006.66;4437002;32;34898;-54
2020/12/04 06:39:30;;;;;;;33.28;17.15;;;;;;;4.75;66.96;98993.59;4434831;32;34514;-54
2020/12/04 06:41:59;;;;;;;27.33;16.73;;;;;;;4.68;67.62;98993.84;4436860;32;33542;-56
2020/12/04 06:44:31;;;;;;;27.62;15.75;;;;;;;4.56;67.94;98997.72;4432100;32;33612;-50
2020/12/04 06:47:00;;;;;;;26.87;15.48;;;;;;;4.63;67.47;98999.22;4429096;32;35685;-49
2020/12/04 06:49:37;;;;;;;28.45;15.68;;;;;;;4.48;68.19;99004.94;4436058;32;34187;-51
2020/12/04 06:52:14;;;;;;;26.80;13.65;;;;;;;4.66;67.42;99004.34;4435624;32;33357;-49
2020/12/04 06:54:51;;;;;;;31.92;16.08;;;;;;;4.92;66.79;99007.88;4436898;32;34669;-49
2020/12/04 06:57:19;;;;;;;30.02;14.48;;;;;;;4.43;68.72;99015.53;4436524;32;35640;-51
2020/12/04 06:59:47;;;;;;;25.17;14.63;;;;;;;4.84;67.10;99018.56;4449127;32;34833;-53
2020/12/04 07:02:22;;;;;;;30.35;14.68;;;;;;;4.79;67.40;99016.09;4436351;32;34268;-49
2020/12/04 07:04:52;;;;;;;30.15;14.63;;;;;;;4.95;67.21;99013.00;4423491;32;34490;-49
2020/12/04 07:07:19;;;;;;;27.92;15.05;;;;;;;5.22;66.07;98996.38;4422891;32;35033;-49
2020/12/04 07:09:53;;;;;;;24.73;14.32;;;;;;;5.26;65.47;98997.09;4435004;32;35195;-52
2020/12/04 07:12:21;;;;;;;29.40;14.77;;;;;;;4.85;66.96;98995.00;4436782;32;33234;-49
2020/12/04 07:14:52;;;;;;;30.02;14.93;;;;;;;4.99;66.77;98996.31;4435248;32;33914;-49
2020/12/04 07:17:21;;;;;;;31.87;15.63;;;;;;;5.08;66.16;99002.06;4425145;32;34675;-49
2020/12/04 07:19:51;;;;;;;27.00;13.65;;;;;;;5.11;65.88;99004.56;4442698;32;34031;-50
2020/12/04 07:22:20;;;;;;;27.50;14.00;;;;;;;5.15;66.17;99013.19;4454271;32;33277;-51
2020/12/04 07:24:49;;;;;;;25.98;14.52;;;;;;;5.28;66.21;99018.84;4436352;32;33727;-48
2020/12/04 07:27:19;;;;;;;31.65;17.30;;;;;;;4.95;67.36;99032.16;4439087;32;34978;-51
2020/12/04 07:29:46;;;;;;;31.90;17.15;;;;;;;5.04;66.71;99031.00;4439312;32;34337;-50
2020/12/04 07:32:19;;;;;;;31.10;15.85;;;;;;;4.99;67.31;99036.41;4438370;32;33234;-53
2020/12/04 07:34:46;;;;;;;27.33;14.60;;;;;;;5.32;65.84;99036.16;4425443;32;34616;-49
2020/12/04 07:37:14;;;;;;;27.75;14.82;;;;;;;5.45;65.49;99028.72;4435254;32;35612;-49
2020/12/04 07:39:43;;;;;;;24.90;13.60;;;;;;;5.28;65.71;99029.31;4439878;32;34344;-51
2020/12/04 07:42:12;;;;;;;27.08;15.15;;;;;;;4.65;68.32;99041.84;4426022;32;33353;-51
2020/12/04 07:44:41;;;;;;;26.08;14.23;;;;;;;4.80;68.40;99051.84;4439971;32;33866;-52
2020/12/04 07:47:11;;;;;;;28.02;16.00;;;;;;;4.93;67.69;99038.34;4437722;32;35582;-50
2020/12/04 07:49:51;;;;;;;27.00;14.73;;;;;;;4.80;68.21;99043.13;4440385;32;34103;-51
2020/12/04 07:52:25;;;;;;;30.55;16.17;;;;;;;4.84;68.74;99045.59;4439134;32;33176;-52
2020/12/04 07:55:04;;;;;;;28.92;15.73;;;;;;;5.14;67.36;99048.09;4431637;32;34431;-51
2020/12/04 07:57:52;;;;;;;26.00;13.65;;;;;;;5.05;67.65;99044.03;4412459;32;35742;-52
2020/12/04 08:00:20;;;;;;;23.52;12.90;;;;;;;5.55;65.61;99043.19;4442234;32;33851;-49
2020/12/04 08:02:47;;;;;;;27.52;13.30;;;;;;;4.92;67.62;99047.09;4444478;32;33207;-52
2020/12/04 08:05:21;;;;;;;26.62;14.57;;;;;;;5.14;67.20;99053.34;4420630;32;34461;-53
2020/12/04 08:07:52;;;;;;;27.20;13.75;;;;;;;5.12;67.95;99044.66;4441288;32;34751;-49
2020/12/04 08:10:20;;;;;;;25.42;13.98;;;;;;;5.34;67.32;99032.56;4434364;32;34832;-53
2020/12/04 08:12:49;;;;;;;28.10;13.68;;;;;;;5.43;66.48;99048.87;4442790;32;32958;-52
2020/12/04 08:15:17;;;;;;;26.02;14.23;;;;;;;5.10;67.68;99041.25;4431358;32;33734;-55
2020/12/04 08:17:45;;;;;;;27.95;15.32;;;;;;;5.22;67.41;99039.97;4426673;32;34754;-53
2020/12/04 08:20:17;;;;;;;29.23;14.25;;;;;;;5.44;66.73;99037.50;4445843;32;34212;-55
2020/12/04 08:22:48;;;;;;;27.13;15.23;;;;;;;5.44;66.40;99029.62;4444228;32;33416;-51
2020/12/04 08:25:34;;;;;;;25.33;14.75;;;;;;;5.40;66.93;99029.72;4432943;32;34302;-52
2020/12/04 08:28:05;;;;;;;26.00;13.93;;;;;;;5.12;68.47;99031.59;4430443;32;35618;-53
2020/12/04 08:30:34;;;;;;;23.08;12.50;;;;;;;5.36;67.52;99027.28;4433954;32;33934;-52
2020/12/04 08:33:05;;;;;;;26.80;13.50;;;;;;;5.36;67.13;99022.91;4444918;32;33329;-51
2020/12/04 08:35:40;;;;;;;27.02;14.30;;;;;;;5.19;67.61;99030.50;4446509;32;33673;-54
2020/12/04 08:38:11;;;;;;;27.15;13.82;;;;;;;5.28;67.27;99024.94;4431360;32;35511;-55
2020/12/04 08:40:41;;;;;;;23.98;13.77;;;;;;;5.19;68.04;99042.72;4449634;32;35107;-52
2020/12/04 08:43:13;;;;;;;24.25;12.73;;;;;;;5.67;66.47;99041.91;4424203;32;33132;-54
2020/12/04 08:45:41;;;;;;;24.67;13.20;;;;;;;5.46;66.90;99043.50;4437371;32;33657;-52
2020/12/04 08:48:09;;;;;;;21.87;11.90;;;;;;;5.16;68.09;99037.56;4434365;32;34982;-53
2020/12/04 08:50:45;;;;;;;27.85;13.70;;;;;;;5.10;68.22;99043.88;4438410;32;34915;-50
2020/12/04 08:53:14;;;;;;;22.67;13.57;;;;;;;5.22;68.64;99046.09;4425100;32;33982;-50
2020/12/04 08:55:52;;;;;;;23.83;13.15;;;;;;;5.60;67.00;99049.13;4424227;32;33450;-50
2020/12/04 08:58:21;;;;;;;23.02;12.37;;;;;;;5.10;68.78;99051.72;4439053;32;34791;-50
2020/12/04 09:00:50;;;;;;;25.40;13.15;;;;;;;5.29;67.97;99051.97;4417058;32;32944;-52
2020/12/04 09:03:18;;;;;;;28.87;14.48;;;;;;;5.16;69.06;99048.91;4454336;32;34294;-50
2020/12/04 09:05:46;;;;;;;24.73;13.93;;;;;;;5.40;68.54;99050.69;4439715;32;33627;-50
2020/12/04 09:08:13;;;;;;;27.20;13.62;;;;;;;5.10;69.75;99049.13;4454161;32;35801;-50
2020/12/04 09:10:41;;;;;;;24.08;13.27;;;;;;;5.15;69.36;99055.03;4439328;32;34267;-51
2020/12/04 09:13:09;;;;;;;25.37;12.90;;;;;;;5.68;67.79;99054.09;4437278;32;33333;-50
2020/12/04 09:15:37;;;;;;;22.67;12.68;;;;;;;5.50;68.33;99058.22;4437454;32;33823;-49
2020/12/04 09:18:07;;;;;;;24.73;13.02;;;;;;;5.12;70.43;99060.38;4437629;32;34902;-51
2020/12/04 09:20:35;;;;;;;26.65;14.65;;;;;;;5.04;71.14;99049.31;4438181;32;34133;-51
2020/12/04 09:23:02;;;;;;;24.87;12.15;;;;;;;5.13;70.61;99046.41;4438611;32;33542;-49
2020/12/04 09:25:31;;;;;;;29.65;15.23;;;;;;;5.81;68.70;99052.75;4438033;32;33428;-49
2020/12/04 09:28:16;;;;;;;26.42;12.35;;;;;;;5.67;69.80;99055.00;4437595;32;34988;-49
2020/12/04 09:30:43;;;;;;;23.58;12.70;;;;;;;5.76;68.54;99039.81;4439077;32;35030;-50
2020/12/04 09:33:10;;;;;;;30.35;15.38;;;;;;;5.36;69.26;99038.63;4435840;32;33550;-50
2020/12/04 09:35:37;;;;;;;29.20;15.63;;;;;;;5.33;70.41;99038.72;4423615;32;33591;-50
2020/12/04 09:38:05;;;;;;;30.52;16.17;;;;;;;5.86;68.49;99032.47;4443843;32;34779;-49
2020/12/04 09:40:32;;;;;;;26.15;14.20;;;;;;;5.84;68.61;99023.81;4445379;32;34914;-50
2020/12/04 09:43:00;;;;;;;31.48;15.98;;;;;;;5.96;68.04;99022.53;4443072;32;33120;-48
2020/12/04 09:45:29;;;;;;;28.48;14.10;;;;;;;5.49;70.32;99027.72;4447332;32;33837;-48
2020/12/04 09:47:57;;;;;;;22.00;12.52;;;;;;;5.74;69.23;99032.91;4443900;32;35823;-48
2020/12/04 09:50:25;;;;;;;27.23;14.77;;;;;;;5.79;69.37;99041.44;4432473;32;34087;-52
2020/12/04 09:52:52;;;;;;;22.52;12.98;;;;;;;5.89;68.57;99037.62;4435858;32;34217;-49
2020/12/04 09:55:19;;;;;;;27.55;13.85;;;;;;;5.88;68.83;99021.00;4429017;32;33822;-50
2020/12/04 09:57:47;;;;;;;25.00;14.35;;;;;;;5.85;68.72;99023.75;4438767;32;34847;-50
2020/12/04 10:00:14;;;;;;;27.42;14.32;;;;;;;5.66;69.87;99020.09;4423460;32;34438;-51
2020/12/04 10:02:41;;;;;;;25.52;13.88;;;;;;;5.80;70.10;99012.59;4437555;32;33413;-52
2020/12/04 10:05:08;;;;;;;23.85;12.30;;;;;;;5.82;69.55;99009.91;4424295;32;34373;-50
2020/12/04 10:07:36;;;;;;;24.33;14.10;;;;;;;6.24;67.25;98999.59;4424043;32;35827;-48
2020/12/04 10:10:04;;;;;;;23.48;12.90;;;;;;;6.32;67.39;99009.81;4438235;32;35195;-49
2020/12/04 10:12:32;;;;;;;28.70;12.90;;;;;;;6.33;68.00;99007.12;4437802;32;32924;-54
2020/12/04 10:14:59;;;;;;;23.73;12.77;;;;;;;5.85;68.72;99002.81;4431843;32;33595;-51
2020/12/04 10:17:26;;;;;;;24.00;12.37;;;;;;;5.72;69.11;99001.53;4437277;32;35784;-49
2020/12/04 10:19:54;;;;;;;23.85;12.70;;;;;;;6.06;68.02;98982.81;4423988;32;34284;-50
2020/12/04 10:22:21;;;;;;;26.87;13.48;;;;;;;5.90;68.58;98985.16;4436050;32;33657;-53
2020/12/04 10:24:49;;;;;;;19.08;13.10;;;;;;;5.76;69.26;98997.06;4435422;32;33738;-53
2020/12/04 10:27:17;;;;;;;21.65;12.35;;;;;;;6.44;67.95;98997.97;4437509;32;34953;-52
2020/12/04 10:29:51;;;;;;;22.52;12.15;;;;;;;6.49;67.72;98981.13;4438328;32;34938;-51
2020/12/04 10:32:19;;;;;;;24.52;10.88;;;;;;;6.26;67.75;98986.44;4429252;32;33048;-52
2020/12/04 10:34:47;;;;;;;22.42;12.85;;;;;;;6.48;67.42;98968.09;4443596;32;33553;-53
2020/12/04 10:37:14;;;;;;;22.90;12.88;;;;;;;6.24;67.87;98967.31;4424868;32;34936;-51
2020/12/04 10:39:41;;;;;;;18.85;10.65;;;;;;;6.12;68.40;98966.00;4422500;32;33332;-53
2020/12/04 10:42:08;;;;;;;22.52;14.13;;;;;;;6.88;66.06;98960.31;4442038;32;33455;-55
2020/12/04 10:44:36;;;;;;;22.67;13.18;;;;;;;6.39;68.75;98957.03;4425331;32;34368;-53
2020/12/04 10:47:03;;;;;;;28.58;14.07;;;;;;;7.01;66.34;98962.38;4442004;32;34689;-54
2020/12/04 10:49:30;;;;;;;27.50;14.13;;;;;;;6.59;67.40;98969.34;4440197;32;33935;-54
2020/12/04 10:51:58;;;;;;;25.88;13.75;;;;;;;6.19;68.50;98971.87;4443921;32;33217;-53
2020/12/04 10:54:25;;;;;;;22.70;12.23;;;;;;;6.24;68.78;98962.91;4433387;32;33643;-55
2020/12/04 10:56:56;;;;;;;23.25;12.65;;;;;;;6.59;66.82;98950.13;4432642;32;34481;-49
2020/12/04 10:59:24;;;;;;;23.27;12.53;;;;;;;6.41;67.69;98963.09;4433826;32;34365;-49
2020/12/04 11:01:58;;;;;;;24.33;13.02;;;;;;;6.77;66.38;98959.03;4427592;32;32676;-52
2020/12/04 11:07:12;;;;;;;25.35;12.55;;;;;;;6.57;67.17;98962.47;4446403;32;35145;-51
2020/12/04 11:09:57;;;;;;;23.05;13.10;;;;;;;6.92;66.62;98969.72;4433659;32;34018;-47
2020/12/04 11:12:24;;;;;;;23.62;13.00;;;;;;;6.63;67.35;98965.69;4447379;32;32722;-48
2020/12/04 11:14:52;;;;;;;32.33;14.70;;;;;;;6.47;68.17;98958.53;4430026;32;33603;-52
2020/12/04 11:17:19;;;;;;;28.45;12.15;;;;;;;6.83;67.57;98959.63;4432117;32;35850;-48
2020/12/04 11:19:46;;;;;;;26.98;13.62;;;;;;;6.56;67.54;98972.13;4445311;32;34551;-51
2020/12/04 11:22:14;;;;;;;29.15;13.52;;;;;;;6.65;67.68;98965.66;4444263;32;34035;-48
2020/12/04 11:24:41;;;;;;;25.52;12.52;;;;;;;7.11;66.03;98958.44;4444837;32;34267;-49
2020/12/04 11:27:08;;;;;;;22.42;12.07;;;;;;;6.89;66.84;98950.66;4434014;32;35902;-48
2020/12/04 11:29:36;;;;;;;18.62;10.30;;;;;;;6.82;66.95;98957.91;4443595;32;34342;-51
2020/12/04 11:32:03;;;;;;;18.45;11.60;;;;;;;7.19;65.97;98959.84;4424353;32;33414;-51
2020/12/04 11:34:31;;;;;;;24.05;10.43;;;;;;;6.75;66.83;98964.34;4435217;32;33560;-48
2020/12/04 11:36:59;;;;;;;20.67;11.40;;;;;;;6.92;66.28;98956.59;4444074;32;36377;-50
2020/12/04 11:39:28;;;;;;;18.52;10.27;;;;;;;7.02;66.11;98951.81;4443538;32;34141;-50